Ryoei Maru — JL6703 — position and weather

sailwx.info

Track history (hours):
 
Tides and Currents Weather Stations Pressure Air Temp Water Temp Dewpoint Dewpoint Depression Visibility Wind Speed Wind Dir Waves Ship Positions

Ryoei Maru

Last reported at 2017-Apr-25 13:20 UTC. Time now 2017-Apr-26 21:21 UTC.
Position N 34°01' E 134°59'.

Length 95 m; draft 5 m.

Type: Cargo ship. MMSI: 431501749.

Date/timePositionNaut miles runAvg speedWind from/ knotsBaromVisibWave heightAir tempDewpointWater temp
2017-Apr-25 13:20N 34°01' E 134°59'412.5
2017-Apr-25 13:00N 34°05' E 134°59'612.6
2017-Apr-25 12:30N 34°12' E 134°58'611.7
2017-Apr-25 11:59N 34°18' E 134°59'610.1
2017-Apr-25 11:23N 34°23' E 135°00'411.2
2017-Apr-25 10:59N 34°28' E 135°02'511.3
2017-Apr-25 10:30N 34°33' E 135°04'4 8.3
2017-Apr-25 10:00N 34°37' E 135°01'4 8.6
2017-Apr-25 09:30N 34°36' E 134°56'5 9.8
2017-Apr-25 09:00N 34°39' E 134°51'3 0.3
2017-Apr-24 22:01N 34°41' E 134°50'010.8
2017-Apr-24 22:00N 34°41' E 134°49'2 0.2
2017-Apr-24 13:55N 34°40' E 134°50'0 0.0
2017-Apr-24 12:11N 34°40' E 134°49'1 8.4
2017-Apr-24 12:00N 34°39' E 134°51'612.9
2017-Apr-24 11:30N 34°38' E 134°59'713.3
2017-Apr-24 11:00N 34°35' E 135°06'611.7
2017-Apr-24 10:30N 34°36' E 135°13'611.9
2017-Apr-24 10:00N 34°37' E 135°20'4 8.6
2017-Apr-24 09:30N 34°37' E 135°26'0 0.0
2017-Apr-24 05:53N 34°37' E 135°26'0 0.0
2017-Apr-24 04:11N 34°37' E 135°26'0 0.0
2017-Apr-24 03:53N 34°37' E 135°26'0 0.0
2017-Apr-24 02:47N 34°37' E 135°26'0 0.1
2017-Apr-24 02:23N 34°37' E 135°26'0 0.0
2017-Apr-23 23:23N 34°37' E 135°26'0 0.0
2017-Apr-23 22:59N 34°37' E 135°26'0 0.0
2017-Apr-23 22:27N 34°37' E 135°26'2 3.8
2017-Apr-23 22:00N 34°38' E 135°24'510.3
2017-Apr-23 21:30N 34°35' E 135°18'0 0.4
2017-Apr-23 20:51N 34°35' E 135°18'0 0.0
2017-Apr-23 20:27N 34°35' E 135°18'0 0.0
2017-Apr-23 19:57N 34°35' E 135°18'4 8.7
2017-Apr-23 19:30N 34°32' E 135°15'612.3
2017-Apr-23 19:00N 34°27' E 135°10'812.5
2017-Apr-23 18:23N 34°21' E 135°04'512.4
2017-Apr-23 17:58N 34°18' E 134°60'611.1
2017-Apr-23 17:25N 34°11' E 134°60'512.2
2017-Apr-23 17:00N 34°06' E 134°60'  
2017-Apr-18 14:24N 33°58' E 134°60'1011.6
2017-Apr-18 13:30N 34°08' E 134°59'612.5
2017-Apr-18 13:00N 34°14' E 134°59'712.0
2017-Apr-18 12:28N 34°21' E 134°59'512.0
2017-Apr-18 12:00N 34°25' E 135°03'713.1
2017-Apr-18 11:29N 34°29' E 135°10'612.6
2017-Apr-18 11:00N 34°33' E 135°15'612.7
2017-Apr-18 10:30N 34°37' E 135°21'4 6.8
2017-Apr-18 09:58N 34°37' E 135°26'0 0.1
2017-Apr-18 09:19N 34°37' E 135°26'0 0.0
2017-Apr-18 08:49N 34°37' E 135°26'0 0.0
2017-Apr-18 06:37N 34°37' E 135°26'0 0.0
2017-Apr-17 22:25N 34°37' E 135°26'0 0.0
2017-Apr-17 21:43N 34°37' E 135°26'0 0.0
2017-Apr-17 16:49N 34°37' E 135°26'0 0.0
2017-Apr-17 06:55N 34°37' E 135°26'0 0.0
2017-Apr-17 03:31N 34°37' E 135°26'0 0.0
2017-Apr-17 02:44N 34°37' E 135°26'0 0.3
2017-Apr-17 02:30N 34°37' E 135°26'4 7.5
2017-Apr-17 02:00N 34°36' E 135°21'612.4
2017-Apr-17 01:29N 34°32' E 135°16'612.4
2017-Apr-17 01:00N 34°27' E 135°11'612.3
2017-Apr-17 00:30N 34°23' E 135°06'1011.6
2017-Apr-16 23:37N 34°14' E 134°59'612.5
2017-Apr-16 23:10N 34°08' E 134°60'313.0
2017-Apr-16 22:56N 34°05' E 134°60'231 9.8
2017-Apr-15 23:16N 34°43' E 139°37'611.2
2017-Apr-15 22:43N 34°46' E 139°43'311.4
2017-Apr-15 22:30N 34°47' E 139°46'  
Track history (hours):
 
Tides and Currents Weather Stations Pressure Air Temp Water Temp Dewpoint Dewpoint Depression Visibility Wind Speed Wind Dir Waves Ship Positions

Ryoei Maru

Last reported at 2017-Apr-25 13:20 UTC. Time now 2017-Apr-26 21:21 UTC.
Position N 34°01' E 134°59'.

Length 95 m; draft 5 m.

Type: Cargo ship. MMSI: 431501749.

Date/timePositionNaut miles runAvg speedWind from/ knotsBaromVisibWave heightAir tempDewpointWater temp
2017-Apr-25 13:20N 34°01' E 134°59'412.5
2017-Apr-25 13:00N 34°05' E 134°59'612.6
2017-Apr-25 12:30N 34°12' E 134°58'611.7
2017-Apr-25 11:59N 34°18' E 134°59'610.1
2017-Apr-25 11:23N 34°23' E 135°00'411.2
2017-Apr-25 10:59N 34°28' E 135°02'511.3
2017-Apr-25 10:30N 34°33' E 135°04'4 8.3
2017-Apr-25 10:00N 34°37' E 135°01'4 8.6
2017-Apr-25 09:30N 34°36' E 134°56'5 9.8
2017-Apr-25 09:00N 34°39' E 134°51'3 0.3
2017-Apr-24 22:01N 34°41' E 134°50'010.8
2017-Apr-24 22:00N 34°41' E 134°49'2 0.2
2017-Apr-24 13:55N 34°40' E 134°50'0 0.0
2017-Apr-24 12:11N 34°40' E 134°49'1 8.4
2017-Apr-24 12:00N 34°39' E 134°51'612.9
2017-Apr-24 11:30N 34°38' E 134°59'713.3
2017-Apr-24 11:00N 34°35' E 135°06'611.7
2017-Apr-24 10:30N 34°36' E 135°13'611.9
2017-Apr-24 10:00N 34°37' E 135°20'4 8.6
2017-Apr-24 09:30N 34°37' E 135°26'0 0.0
2017-Apr-24 05:53N 34°37' E 135°26'0 0.0
2017-Apr-24 04:11N 34°37' E 135°26'0 0.0
2017-Apr-24 03:53N 34°37' E 135°26'0 0.0
2017-Apr-24 02:47N 34°37' E 135°26'0 0.1
2017-Apr-24 02:23N 34°37' E 135°26'0 0.0
2017-Apr-23 23:23N 34°37' E 135°26'0 0.0
2017-Apr-23 22:59N 34°37' E 135°26'0 0.0
2017-Apr-23 22:27N 34°37' E 135°26'2 3.8
2017-Apr-23 22:00N 34°38' E 135°24'510.3
2017-Apr-23 21:30N 34°35' E 135°18'0 0.4
2017-Apr-23 20:51N 34°35' E 135°18'0 0.0
2017-Apr-23 20:27N 34°35' E 135°18'0 0.0
2017-Apr-23 19:57N 34°35' E 135°18'4 8.7
2017-Apr-23 19:30N 34°32' E 135°15'612.3
2017-Apr-23 19:00N 34°27' E 135°10'812.5
2017-Apr-23 18:23N 34°21' E 135°04'512.4
2017-Apr-23 17:58N 34°18' E 134°60'611.1
2017-Apr-23 17:25N 34°11' E 134°60'512.2
2017-Apr-23 17:00N 34°06' E 134°60'  
2017-Apr-18 14:24N 33°58' E 134°60'1011.6
2017-Apr-18 13:30N 34°08' E 134°59'612.5
2017-Apr-18 13:00N 34°14' E 134°59'712.0
2017-Apr-18 12:28N 34°21' E 134°59'512.0
2017-Apr-18 12:00N 34°25' E 135°03'713.1
2017-Apr-18 11:29N 34°29' E 135°10'612.6
2017-Apr-18 11:00N 34°33' E 135°15'612.7
2017-Apr-18 10:30N 34°37' E 135°21'4 6.8
2017-Apr-18 09:58N 34°37' E 135°26'0 0.1
2017-Apr-18 09:19N 34°37' E 135°26'0 0.0
2017-Apr-18 08:49N 34°37' E 135°26'0 0.0
2017-Apr-18 06:37N 34°37' E 135°26'0 0.0
2017-Apr-17 22:25N 34°37' E 135°26'0 0.0
2017-Apr-17 21:43N 34°37' E 135°26'0 0.0
2017-Apr-17 16:49N 34°37' E 135°26'0 0.0
2017-Apr-17 06:55N 34°37' E 135°26'0 0.0
2017-Apr-17 03:31N 34°37' E 135°26'0 0.0
2017-Apr-17 02:44N 34°37' E 135°26'0 0.3
2017-Apr-17 02:30N 34°37' E 135°26'4 7.5
2017-Apr-17 02:00N 34°36' E 135°21'612.4
2017-Apr-17 01:29N 34°32' E 135°16'612.4
2017-Apr-17 01:00N 34°27' E 135°11'612.3
2017-Apr-17 00:30N 34°23' E 135°06'1011.6
2017-Apr-16 23:37N 34°14' E 134°59'612.5
2017-Apr-16 23:10N 34°08' E 134°60'313.0
2017-Apr-16 22:56N 34°05' E 134°60'231 9.8
2017-Apr-15 23:16N 34°43' E 139°37'611.2
2017-Apr-15 22:43N 34°46' E 139°43'311.4
2017-Apr-15 22:30N 34°47' E 139°46'  

Dump ship's entire track history